Time;durP1;ratioP1;P1;durP2;ratioP2;P2;SDS_P1;SDS_P2;PMS_P1;PMS_P2;Temp;Humidity;BMP_temperature;BMP_pressure;BME280_temperature;BME280_humidity;BME280_pressure;Samples;Min_cycle;Max_cycle;Signal;HPM_P1;HPM_P2
2021/06/24 00:02:24;;;;;;;;;11.00;10.00;;;;;;;;5020099;28;45648;-77
2021/06/24 00:04:50;;;;;;;;;13.75;11.00;;;;;;;;5002364;28;45675;-77
2021/06/24 00:07:15;;;;;;;;;10.25;10.25;;;;;;;;5025595;28;45965;-77
2021/06/24 00:09:40;;;;;;;;;11.50;9.00;;;;;;;;5024913;28;45791;-76
2021/06/24 00:12:06;;;;;;;;;13.75;11.00;;;;;;;;5018477;28;45600;-76
2021/06/24 00:14:31;;;;;;;;;11.00;9.25;;;;;;;;5043704;22;45806;-77
2021/06/24 00:16:56;;;;;;;;;10.25;10.00;;;;;;;;4998022;28;49848;-77
2021/06/24 00:19:22;;;;;;;;;13.00;12.00;;;;;;;;5002216;28;45774;-77
2021/06/24 00:21:47;;;;;;;;;8.50;8.00;;;;;;;;4997115;28;46200;-77
2021/06/24 00:24:12;;;;;;;;;12.25;9.00;;;;;;;;5002500;28;45362;-77
2021/06/24 00:26:38;;;;;;;;;12.50;11.50;;;;;;;;5003653;28;45601;-76
2021/06/24 00:29:03;;;;;;;;;9.00;8.00;;;;;;;;4998360;28;45530;-77
2021/06/24 00:31:28;;;;;;;;;10.50;8.00;;;;;;;;5004401;28;45819;-77
2021/06/24 00:33:53;;;;;;;;;9.00;8.75;;;;;;;;5013391;28;45701;-77
2021/06/24 00:36:19;;;;;;;;;10.00;8.25;;;;;;;;5007877;28;46195;-76
2021/06/24 00:38:44;;;;;;;;;13.25;12.00;;;;;;;;5000634;28;45550;-77
2021/06/24 00:41:09;;;;;;;;;14.50;11.00;;;;;;;;5004344;28;47300;-77
2021/06/24 00:43:35;;;;;;;;;13.50;9.50;;;;;;;;4996109;28;45764;-76
2021/06/24 00:46:00;;;;;;;;;14.50;10.00;;;;;;;;4997225;28;47923;-77
2021/06/24 00:48:26;;;;;;;;;9.50;8.75;;;;;;;;4997025;28;45630;-76
2021/06/24 00:50:51;;;;;;;;;8.00;8.00;;;;;;;;4993110;28;46191;-77
2021/06/24 00:53:20;;;;;;;;;9.25;9.25;;;;;;;;4993219;28;45702;-77
2021/06/24 00:55:46;;;;;;;;;11.00;9.00;;;;;;;;5002854;28;45673;-78
2021/06/24 00:58:29;;;;;;;;;8.75;8.00;;;;;;;;5002082;28;45716;-77
2021/06/24 01:00:55;;;;;;;;;13.25;9.50;;;;;;;;4984942;28;46699;-78
2021/06/24 01:03:21;;;;;;;;;9.50;8.00;;;;;;;;5071059;22;45494;-89
2021/06/24 01:10:57;;;;;;;;;11.25;9.25;;;;;;;;5829964;22;49466;-77
2021/06/24 01:13:22;;;;;;;;;9.00;9.00;;;;;;;;5011595;28;45411;-77
2021/06/24 01:15:47;;;;;;;;;13.00;11.25;;;;;;;;5014346;28;45792;-78
2021/06/24 01:18:13;;;;;;;;;8.25;7.00;;;;;;;;4994669;28;46193;-77
2021/06/24 01:20:39;;;;;;;;;15.00;9.75;;;;;;;;5007205;28;45633;-78
2021/06/24 01:23:05;;;;;;;;;11.25;9.75;;;;;;;;5007560;28;46346;-78
2021/06/24 01:25:31;;;;;;;;;14.00;10.50;;;;;;;;5014603;28;46134;-78
2021/06/24 01:28:00;;;;;;;;;11.25;7.50;;;;;;;;4992926;28;52935;-78
2021/06/24 01:30:26;;;;;;;;;11.00;9.00;;;;;;;;5011052;28;45415;-78
2021/06/24 01:32:52;;;;;;;;;7.25;7.25;;;;;;;;5023733;28;45550;-77
2021/06/24 01:35:21;;;;;;;;;11.25;8.75;;;;;;;;5014069;28;45997;-78
2021/06/24 01:37:46;;;;;;;;;8.75;8.50;;;;;;;;4997751;28;45943;-78
2021/06/24 01:40:12;;;;;;;;;9.00;9.00;;;;;;;;5024224;28;44957;-78
2021/06/24 01:42:38;;;;;;;;;11.50;8.00;;;;;;;;5013532;28;46647;-78
2021/06/24 01:45:03;;;;;;;;;11.25;9.75;;;;;;;;5016628;28;45486;-78
2021/06/24 01:47:29;;;;;;;;;9.00;9.00;;;;;;;;5003072;28;45637;-78
2021/06/24 01:49:54;;;;;;;;;8.00;8.00;;;;;;;;4998254;28;45884;-78
2021/06/24 01:52:19;;;;;;;;;8.67;6.67;;;;;;;;5014402;28;45600;-77
2021/06/24 01:54:46;;;;;;;;;12.50;9.50;;;;;;;;5043289;22;46471;-77
2021/06/24 01:57:16;;;;;;;;;13.75;7.75;;;;;;;;5028218;28;45587;-77
2021/06/24 01:59:42;;;;;;;;;12.00;8.75;;;;;;;;5022145;28;46002;-77
2021/06/24 02:02:07;;;;;;;;;7.75;7.00;;;;;;;;4992955;28;46448;-77
2021/06/24 02:04:32;;;;;;;;;8.00;6.50;;;;;;;;5017579;28;46051;-76
2021/06/24 02:06:58;;;;;;;;;9.25;8.25;;;;;;;;5015159;28;45514;-77
2021/06/24 02:09:23;;;;;;;;;8.50;7.50;;;;;;;;5011869;28;45355;-76
2021/06/24 02:11:48;;;;;;;;;9.00;5.67;;;;;;;;5013041;28;46808;-76
2021/06/24 02:14:13;;;;;;;;;8.67;6.00;;;;;;;;5009592;28;51710;-76
2021/06/24 02:16:39;;;;;;;;;12.25;7.75;;;;;;;;4993818;28;46371;-77
2021/06/24 02:19:04;;;;;;;;;14.75;9.00;;;;;;;;5009334;28;46435;-76
2021/06/24 02:21:29;;;;;;;;;7.50;7.50;;;;;;;;5010099;28;46142;-77
2021/06/24 02:23:54;;;;;;;;;10.50;8.75;;;;;;;;5015541;28;45732;-77
2021/06/24 02:26:20;;;;;;;;;9.50;8.00;;;;;;;;5005756;28;45548;-76
2021/06/24 02:28:45;;;;;;;;;8.50;6.75;;;;;;;;5014133;28;45806;-77
2021/06/24 02:31:10;;;;;;;;;8.25;8.25;;;;;;;;5012513;28;45635;-77
2021/06/24 02:33:36;;;;;;;;;9.00;9.00;;;;;;;;5006048;28;47106;-76
2021/06/24 02:36:01;;;;;;;;;12.25;7.00;;;;;;;;5000947;28;45956;-76
2021/06/24 02:38:26;;;;;;;;;10.25;8.50;;;;;;;;5012911;28;48525;-76
2021/06/24 02:40:52;;;;;;;;;9.25;6.75;;;;;;;;5010431;28;45818;-77
2021/06/24 02:43:17;;;;;;;;;11.25;8.00;;;;;;;;5017196;28;46182;-77
2021/06/24 02:45:44;;;;;;;;;6.75;5.00;;;;;;;;5008040;28;45622;-76
2021/06/24 02:48:09;;;;;;;;;9.25;7.50;;;;;;;;5016458;28;45597;-76
2021/06/24 02:50:34;;;;;;;;;8.33;8.00;;;;;;;;5013890;28;45790;-77
2021/06/24 02:52:59;;;;;;;;;8.00;7.25;;;;;;;;5014879;28;45581;-76
2021/06/24 02:55:30;;;;;;;;;12.67;10.67;;;;;;;;5018232;28;45780;-77
2021/06/24 02:57:55;;;;;;;;;7.75;7.75;;;;;;;;5033252;28;45883;-76
2021/06/24 03:00:21;;;;;;;;;12.50;8.75;;;;;;;;5034094;28;46349;-77
2021/06/24 03:02:46;;;;;;;;;10.00;8.75;;;;;;;;5031983;28;45868;-77
2021/06/24 03:05:12;;;;;;;;;11.00;7.00;;;;;;;;5025290;28;45603;-77
2021/06/24 03:07:37;;;;;;;;;9.00;7.50;;;;;;;;5036033;28;47509;-76
2021/06/24 03:10:03;;;;;;;;;8.00;8.00;;;;;;;;5026129;28;45591;-76
2021/06/24 03:12:28;;;;;;;;;10.75;9.50;;;;;;;;5028921;28;45777;-77
2021/06/24 03:14:53;;;;;;;;;10.33;8.00;;;;;;;;5034593;28;45475;-77
2021/06/24 03:17:19;;;;;;;;;8.67;8.00;;;;;;;;5031488;28;50344;-77
2021/06/24 03:19:44;;;;;;;;;9.50;9.25;;;;;;;;5037711;28;45540;-78
2021/06/24 03:22:09;;;;;;;;;13.25;8.75;;;;;;;;5022562;28;46793;-76
2021/06/24 03:24:34;;;;;;;;;10.00;9.00;;;;;;;;5028600;28;46728;-77
2021/06/24 03:27:00;;;;;;;;;9.33;6.67;;;;;;;;5039101;28;45393;-77
2021/06/24 03:29:25;;;;;;;;;10.00;9.00;;;;;;;;5029677;28;45704;-76
2021/06/24 03:31:50;;;;;;;;;7.50;7.50;;;;;;;;5033554;28;45705;-77
2021/06/24 03:34:15;;;;;;;;;7.67;6.00;;;;;;;;5036374;28;45685;-76
2021/06/24 03:36:41;;;;;;;;;9.75;6.50;;;;;;;;5035503;27;46236;-78
2021/06/24 03:41:41;;;;;;;;;8.25;8.25;;;;;;;;4875074;25;45945;-81
2021/06/24 03:44:07;;;;;;;;;8.00;7.00;;;;;;;;5046299;27;45601;-81
2021/06/24 03:46:33;;;;;;;;;11.00;7.00;;;;;;;;5052940;27;45807;-81
2021/06/24 03:48:58;;;;;;;;;9.25;7.50;;;;;;;;5036451;28;47568;-81
2021/06/24 03:51:23;;;;;;;;;6.75;6.75;;;;;;;;5054165;27;47412;-81
2021/06/24 03:53:48;;;;;;;;;7.00;7.00;;;;;;;;5057427;27;45653;-80
2021/06/24 03:56:14;;;;;;;;;10.50;7.00;;;;;;;;5047753;27;46701;-80
2021/06/24 03:58:39;;;;;;;;;8.50;8.50;;;;;;;;5056752;27;45496;-81
2021/06/24 04:01:04;;;;;;;;;8.50;8.50;;;;;;;;5020850;28;45625;-81
2021/06/24 04:03:30;;;;;;;;;11.50;7.25;;;;;;;;5041028;27;45413;-81
2021/06/24 04:05:55;;;;;;;;;9.50;6.50;;;;;;;;5045267;27;45542;-82
2021/06/24 04:08:20;;;;;;;;;9.00;6.25;;;;;;;;5043904;28;45706;-83
2021/06/24 04:10:46;;;;;;;;;11.00;5.50;;;;;;;;5050765;28;45723;-81
2021/06/24 04:13:11;;;;;;;;;10.75;8.50;;;;;;;;5050366;27;45251;-84
2021/06/24 04:15:36;;;;;;;;;12.25;8.75;;;;;;;;5052311;27;45968;-82
2021/06/24 04:18:06;;;;;;;;;11.00;6.25;;;;;;;;5040356;27;45619;-84
2021/06/24 04:20:32;;;;;;;;;9.25;8.00;;;;;;;;5052628;27;45693;-85
2021/06/24 04:22:58;;;;;;;;;10.00;8.50;;;;;;;;5059931;27;45389;-83
2021/06/24 04:25:24;;;;;;;;;11.00;7.25;;;;;;;;5046510;28;46318;-84
2021/06/24 04:27:49;;;;;;;;;10.25;7.00;;;;;;;;5061936;27;45929;-82
2021/06/24 04:30:15;;;;;;;;;12.75;9.25;;;;;;;;5061737;27;45632;-82
2021/06/24 04:32:40;;;;;;;;;8.00;6.25;;;;;;;;5061476;27;45544;-82
2021/06/24 04:35:06;;;;;;;;;12.00;9.00;;;;;;;;5041964;28;45520;-82
2021/06/24 04:37:32;;;;;;;;;9.00;9.00;;;;;;;;5060858;27;45719;-82
2021/06/24 04:45:27;;;;;;;;;15.00;8.25;;;;;;;;5826264;22;46269;-81
2021/06/24 04:47:53;;;;;;;;;6.50;6.50;;;;;;;;5044333;28;46192;-81
2021/06/24 04:55:39;;;;;;;;;9.25;9.25;;;;;;;;6147185;22;45395;-82
2021/06/24 04:58:06;;;;;;;;;8.00;8.00;;;;;;;;4996741;28;45571;-82
2021/06/24 05:00:34;;;;;;;;;11.25;10.00;;;;;;;;5005690;28;45552;-82
2021/06/24 05:03:03;;;;;;;;;12.25;12.25;;;;;;;;5163657;22;45506;-81
2021/06/24 05:05:28;;;;;;;;;12.00;9.50;;;;;;;;5019216;28;45656;-81
2021/06/24 05:07:54;;;;;;;;;10.00;7.50;;;;;;;;5018471;28;45352;-83
2021/06/24 05:10:20;;;;;;;;;13.25;9.25;;;;;;;;5012175;28;46292;-81
2021/06/24 05:12:46;;;;;;;;;12.75;8.75;;;;;;;;5030210;28;47574;-78
2021/06/24 05:15:15;;;;;;;;;10.25;8.50;;;;;;;;5046607;22;44887;-92
2021/06/24 05:20:15;;;;;;;;;11.50;9.25;;;;;;;;5178048;22;45981;-80
2021/06/24 05:22:41;;;;;;;;;16.00;9.25;;;;;;;;5034519;28;45396;-79
2021/06/24 05:25:07;;;;;;;;;12.50;11.25;;;;;;;;5034234;28;45392;-79
2021/06/24 05:27:32;;;;;;;;;11.75;8.00;;;;;;;;5034342;28;45578;-80
2021/06/24 05:29:57;;;;;;;;;13.25;9.75;;;;;;;;5045406;28;45666;-79
2021/06/24 05:32:22;;;;;;;;;13.33;10.00;;;;;;;;5044939;28;45562;-79
2021/06/24 05:34:48;;;;;;;;;11.00;9.25;;;;;;;;5036655;28;45522;-80
2021/06/24 05:37:13;;;;;;;;;11.00;10.00;;;;;;;;5030614;28;45730;-81
2021/06/24 05:39:38;;;;;;;;;11.67;9.67;;;;;;;;5037901;28;46314;-80
2021/06/24 05:42:04;;;;;;;;;11.50;8.50;;;;;;;;5044372;28;45610;-79
2021/06/24 05:44:29;;;;;;;;;12.75;10.75;;;;;;;;5033308;28;45386;-79
2021/06/24 05:46:55;;;;;;;;;12.75;7.75;;;;;;;;5043000;28;45471;-80
2021/06/24 05:49:20;;;;;;;;;9.75;8.50;;;;;;;;5036783;28;46362;-80
2021/06/24 05:51:45;;;;;;;;;11.25;9.25;;;;;;;;5038966;28;45475;-79
2021/06/24 05:54:11;;;;;;;;;15.00;10.25;;;;;;;;5035217;28;45806;-80
2021/06/24 05:56:37;;;;;;;;;12.25;11.75;;;;;;;;5040207;28;45442;-79
2021/06/24 05:59:03;;;;;;;;;10.50;10.25;;;;;;;;5037968;28;46193;-79
2021/06/24 06:01:29;;;;;;;;;11.25;10.00;;;;;;;;5040450;28;45520;-79
2021/06/24 06:03:54;;;;;;;;;11.75;10.50;;;;;;;;5046719;28;45586;-79
2021/06/24 06:06:19;;;;;;;;;8.00;8.00;;;;;;;;5038693;28;45652;-79
2021/06/24 06:08:44;;;;;;;;;8.00;8.00;;;;;;;;5042976;28;46189;-78
2021/06/24 06:11:10;;;;;;;;;17.50;11.00;;;;;;;;5034796;28;45432;-80
2021/06/24 06:13:35;;;;;;;;;12.25;9.75;;;;;;;;5051645;28;46222;-79
2021/06/24 06:16:00;;;;;;;;;13.00;7.50;;;;;;;;5030498;28;45566;-78
2021/06/24 06:18:26;;;;;;;;;12.00;8.50;;;;;;;;5040818;28;46539;-78
2021/06/24 06:20:52;;;;;;;;;12.50;8.50;;;;;;;;5033271;28;45534;-79
2021/06/24 06:23:19;;;;;;;;;10.00;8.75;;;;;;;;5040501;28;45522;-79
2021/06/24 06:25:45;;;;;;;;;11.00;8.75;;;;;;;;5039280;28;46166;-79
2021/06/24 06:30:52;;;;;;;;;10.75;7.75;;;;;;;;5074495;22;45519;-90
2021/06/24 06:33:18;;;;;;;;;10.50;8.00;;;;;;;;5027667;28;45389;-89
2021/06/24 06:38:18;;;;;;;;;11.00;8.75;;;;;;;;5008821;28;58199;-77
2021/06/24 06:40:43;;;;;;;;;11.00;9.25;;;;;;;;5020688;28;45941;-76
2021/06/24 06:43:08;;;;;;;;;9.25;8.50;;;;;;;;5013861;28;46471;-77
2021/06/24 06:45:35;;;;;;;;;9.75;9.25;;;;;;;;5020187;28;45509;-78
2021/06/24 06:48:00;;;;;;;;;12.00;9.00;;;;;;;;5009245;28;46408;-77
2021/06/24 06:50:26;;;;;;;;;14.25;12.00;;;;;;;;5007163;28;45608;-78
2021/06/24 06:52:51;;;;;;;;;7.50;7.50;;;;;;;;5023766;28;45612;-77
2021/06/24 06:55:17;;;;;;;;;8.25;8.25;;;;;;;;5012099;28;45581;-77
2021/06/24 06:57:42;;;;;;;;;10.75;8.75;;;;;;;;5018986;28;48276;-77
2021/06/24 07:00:09;;;;;;;;;10.50;8.00;;;;;;;;5007395;28;45573;-77
2021/06/24 07:02:34;;;;;;;;;9.50;9.50;;;;;;;;5004198;28;45552;-77
2021/06/24 07:04:59;;;;;;;;;11.50;10.00;;;;;;;;5008557;28;45864;-77
2021/06/24 07:07:24;;;;;;;;;11.50;8.50;;;;;;;;5009872;28;45974;-78
2021/06/24 07:09:50;;;;;;;;;8.33;8.33;;;;;;;;5005059;28;45430;-77
2021/06/24 07:12:16;;;;;;;;;7.75;7.75;;;;;;;;5010154;28;45385;-76
2021/06/24 07:14:41;;;;;;;;;10.75;9.50;;;;;;;;5006223;28;45589;-77
2021/06/24 07:17:06;;;;;;;;;10.00;8.50;;;;;;;;5010711;28;46316;-78
2021/06/24 07:19:32;;;;;;;;;11.75;10.50;;;;;;;;5007400;28;45470;-77
2021/06/24 07:21:57;;;;;;;;;13.00;9.00;;;;;;;;5003731;28;45475;-77
2021/06/24 07:24:22;;;;;;;;;10.50;8.75;;;;;;;;5013416;28;45510;-76
2021/06/24 07:26:47;;;;;;;;;9.75;7.00;;;;;;;;5006276;28;46081;-76
2021/06/24 07:29:13;;;;;;;;;10.50;9.50;;;;;;;;5004941;28;45843;-77
2021/06/24 07:31:38;;;;;;;;;9.50;7.25;;;;;;;;5009176;28;46212;-77
2021/06/24 07:34:03;;;;;;;;;14.75;9.00;;;;;;;;5013274;28;45321;-77
2021/06/24 07:36:28;;;;;;;;;10.00;8.25;;;;;;;;5012845;28;46144;-77
2021/06/24 07:38:54;;;;;;;;;8.25;7.50;;;;;;;;5004724;28;45543;-77
2021/06/24 07:41:20;;;;;;;;;9.25;9.25;;;;;;;;5004097;28;45573;-77
2021/06/24 07:43:45;;;;;;;;;8.00;8.00;;;;;;;;5009188;28;45430;-78
2021/06/24 07:46:11;;;;;;;;;10.25;8.00;;;;;;;;5007335;28;48500;-77
2021/06/24 07:48:36;;;;;;;;;14.25;10.25;;;;;;;;5006413;28;45918;-77
2021/06/24 07:51:02;;;;;;;;;9.25;8.25;;;;;;;;5010170;28;45718;-77
2021/06/24 07:53:27;;;;;;;;;9.50;9.00;;;;;;;;5003496;28;45773;-77
2021/06/24 07:55:52;;;;;;;;;10.50;9.50;;;;;;;;5006660;28;45461;-77
2021/06/24 07:58:18;;;;;;;;;12.75;10.00;;;;;;;;5004394;28;45572;-76
2021/06/24 08:00:43;;;;;;;;;9.00;7.33;;;;;;;;5003824;28;58902;-78
2021/06/24 08:03:08;;;;;;;;;13.50;10.25;;;;;;;;5007485;28;48323;-77
2021/06/24 08:05:33;;;;;;;;;16.00;10.00;;;;;;;;5007400;28;45722;-77
2021/06/24 08:07:59;;;;;;;;;13.25;9.75;;;;;;;;5008025;28;45613;-77
2021/06/24 08:10:24;;;;;;;;;13.00;9.00;;;;;;;;5006021;28;45444;-76
2021/06/24 08:12:49;;;;;;;;;12.75;10.00;;;;;;;;5004873;28;45616;-76
2021/06/24 08:15:15;;;;;;;;;12.00;10.00;;;;;;;;5007420;28;46349;-77
2021/06/24 08:17:42;;;;;;;;;12.25;9.25;;;;;;;;5003843;28;47492;-77
2021/06/24 08:20:08;;;;;;;;;10.00;9.50;;;;;;;;5013178;28;46257;-77
2021/06/24 08:22:33;;;;;;;;;18.75;11.25;;;;;;;;5012877;28;45649;-77
2021/06/24 08:24:59;;;;;;;;;14.50;10.00;;;;;;;;5007330;28;51955;-77
2021/06/24 08:27:24;;;;;;;;;11.75;10.00;;;;;;;;5011141;28;45485;-77
2021/06/24 08:29:49;;;;;;;;;18.67;10.00;;;;;;;;5008143;28;45445;-77
2021/06/24 08:32:15;;;;;;;;;9.25;8.00;;;;;;;;5007933;28;45636;-77
2021/06/24 08:34:40;;;;;;;;;15.00;9.33;;;;;;;;5015415;28;45548;-77
2021/06/24 08:37:05;;;;;;;;;11.75;8.50;;;;;;;;5007787;28;45549;-77
2021/06/24 08:39:30;;;;;;;;;13.00;10.50;;;;;;;;5015003;28;45458;-77
2021/06/24 08:41:56;;;;;;;;;9.33;8.67;;;;;;;;5013075;28;48366;-77
2021/06/24 08:44:21;;;;;;;;;12.50;12.00;;;;;;;;5009637;28;49206;-78
2021/06/24 08:46:51;;;;;;;;;14.50;11.25;;;;;;;;5011154;28;45666;-77
2021/06/24 08:49:20;;;;;;;;;19.25;11.25;;;;;;;;5006201;28;45501;-77
2021/06/24 08:51:46;;;;;;;;;18.75;10.25;;;;;;;;5008062;28;47495;-77
2021/06/24 08:54:11;;;;;;;;;19.00;12.33;;;;;;;;5013154;28;45790;-77
2021/06/24 08:56:36;;;;;;;;;14.00;12.50;;;;;;;;5010963;28;45914;-77
2021/06/24 08:59:02;;;;;;;;;16.25;12.00;;;;;;;;5009326;28;46352;-77
2021/06/24 09:01:47;;;;;;;;;17.50;11.00;;;;;;;;5012485;28;45628;-76
2021/06/24 09:04:13;;;;;;;;;12.75;10.50;;;;;;;;5009129;28;45863;-77
2021/06/24 09:06:38;;;;;;;;;13.50;11.50;;;;;;;;5008211;28;45705;-77
2021/06/24 09:09:04;;;;;;;;;10.67;9.00;;;;;;;;5023516;28;45442;-77
2021/06/24 09:11:30;;;;;;;;;17.50;15.00;;;;;;;;5005685;28;45797;-77
2021/06/24 09:14:06;;;;;;;;;13.75;10.00;;;;;;;;5011817;28;45606;-77
2021/06/24 09:16:32;;;;;;;;;13.75;11.50;;;;;;;;5012471;28;45534;-77
2021/06/24 09:19:14;;;;;;;;;11.00;10.25;;;;;;;;5004399;28;45551;-77
2021/06/24 09:21:40;;;;;;;;;13.50;12.75;;;;;;;;5009088;28;45519;-78
2021/06/24 09:24:26;;;;;;;;;16.00;14.75;;;;;;;;5013013;28;46004;-77
2021/06/24 09:26:51;;;;;;;;;15.75;12.25;;;;;;;;5012172;28;45483;-77
2021/06/24 09:29:17;;;;;;;;;19.75;10.75;;;;;;;;5006636;28;45806;-77
2021/06/24 09:31:43;;;;;;;;;13.00;11.00;;;;;;;;5026739;28;45797;-78
2021/06/24 09:34:13;;;;;;;;;12.25;11.50;;;;;;;;5013304;28;46512;-77
2021/06/24 09:36:39;;;;;;;;;12.50;12.50;;;;;;;;5007531;28;45521;-79
2021/06/24 09:39:06;;;;;;;;;16.25;12.75;;;;;;;;5010539;28;46300;-77
2021/06/24 09:41:32;;;;;;;;;13.25;10.25;;;;;;;;5008822;28;51452;-77
2021/06/24 09:43:57;;;;;;;;;13.00;12.00;;;;;;;;5019464;28;45510;-76
2021/06/24 09:49:00;;;;;;;;;11.00;10.25;;;;;;;;5214975;22;45511;-87
2021/06/24 09:51:30;;;;;;;;;11.00;11.00;;;;;;;;5038603;28;45542;-89
2021/06/24 09:54:00;;;;;;;;;12.00;11.50;;;;;;;;5140299;22;46507;-78
2021/06/24 09:56:28;;;;;;;;;12.50;12.00;;;;;;;;5034158;28;45547;-76
2021/06/24 09:58:54;;;;;;;;;9.75;9.00;;;;;;;;5040192;28;45496;-75
2021/06/24 10:01:29;;;;;;;;;14.00;12.25;;;;;;;;5035028;28;45583;-76
2021/06/24 10:03:55;;;;;;;;;15.00;12.75;;;;;;;;5036032;28;47866;-75
2021/06/24 10:06:21;;;;;;;;;12.75;10.50;;;;;;;;5036225;28;45574;-76
2021/06/24 10:08:46;;;;;;;;;13.00;9.00;;;;;;;;5035611;28;54240;-75
2021/06/24 10:11:11;;;;;;;;;10.33;9.67;;;;;;;;5038448;28;45570;-76
2021/06/24 10:13:37;;;;;;;;;13.67;11.00;;;;;;;;5034340;28;45747;-75
2021/06/24 10:16:02;;;;;;;;;12.25;10.75;;;;;;;;5035040;28;45553;-76
2021/06/24 10:18:27;;;;;;;;;10.50;10.00;;;;;;;;5037778;28;45576;-76
2021/06/24 10:20:53;;;;;;;;;12.75;10.50;;;;;;;;5040906;28;45497;-76
2021/06/24 10:23:20;;;;;;;;;11.50;11.00;;;;;;;;5036678;28;46096;-76
2021/06/24 10:25:47;;;;;;;;;11.00;10.75;;;;;;;;5035036;28;45485;-76
2021/06/24 10:28:16;;;;;;;;;11.25;10.25;;;;;;;;5036137;28;45465;-76
2021/06/24 10:30:42;;;;;;;;;12.25;10.75;;;;;;;;5045096;28;45628;-76
2021/06/24 10:33:11;;;;;;;;;13.00;12.75;;;;;;;;5040762;28;48359;-76
2021/06/24 10:35:37;;;;;;;;;11.25;8.75;;;;;;;;5037609;28;45564;-75
2021/06/24 10:38:03;;;;;;;;;10.75;10.00;;;;;;;;5039024;28;45767;-76
2021/06/24 10:40:30;;;;;;;;;13.00;11.75;;;;;;;;5035234;28;45589;-76
2021/06/24 10:42:56;;;;;;;;;13.25;12.25;;;;;;;;5035997;28;46212;-76
2021/06/24 10:45:22;;;;;;;;;12.25;10.75;;;;;;;;5034558;28;54321;-75
2021/06/24 10:47:48;;;;;;;;;14.25;11.50;;;;;;;;5036411;28;45535;-76
2021/06/24 10:50:36;;;;;;;;;13.50;12.75;;;;;;;;5040807;28;45695;-76
2021/06/24 10:53:07;;;;;;;;;14.75;12.75;;;;;;;;5037834;28;46018;-76
2021/06/24 10:55:41;;;;;;;;;11.75;11.50;;;;;;;;5035875;28;45612;-76
2021/06/24 10:58:12;;;;;;;;;7.75;7.75;;;;;;;;5033915;28;45733;-76
2021/06/24 11:00:38;;;;;;;;;12.75;12.00;;;;;;;;5039256;28;46519;-76
2021/06/24 11:03:10;;;;;;;;;14.00;12.00;;;;;;;;5034363;28;45572;-75
2021/06/24 11:05:37;;;;;;;;;17.50;13.25;;;;;;;;5034878;28;45520;-76
2021/06/24 11:08:10;;;;;;;;;13.00;11.00;;;;;;;;5034353;28;45911;-76
2021/06/24 11:10:54;;;;;;;;;13.25;11.50;;;;;;;;5034284;28;45651;-75
2021/06/24 11:13:35;;;;;;;;;19.50;13.50;;;;;;;;5034633;28;46482;-76
2021/06/24 11:16:01;;;;;;;;;13.50;12.50;;;;;;;;5034246;28;47165;-76
2021/06/24 11:18:30;;;;;;;;;15.50;11.75;;;;;;;;5039544;28;45508;-76
2021/06/24 11:20:55;;;;;;;;;12.00;12.00;;;;;;;;5036041;28;45420;-76
2021/06/24 11:23:30;;;;;;;;;13.33;13.33;;;;;;;;5035176;28;48004;-76
2021/06/24 11:26:08;;;;;;;;;14.50;13.50;;;;;;;;5033726;28;45716;-76
2021/06/24 11:28:47;;;;;;;;;12.00;11.75;;;;;;;;5095443;22;45606;-90
2021/06/24 11:31:14;;;;;;;;;17.00;14.00;;;;;;;;5196609;22;45780;-90
2021/06/24 11:33:54;;;;;;;;;13.75;12.50;;;;;;;;5042821;28;47231;-89
2021/06/24 11:36:20;;;;;;;;;15.75;13.00;;;;;;;;5045918;28;45423;-90
2021/06/24 11:38:47;;;;;;;;;13.25;12.00;;;;;;;;5034234;28;45883;-88
2021/06/24 11:41:12;;;;;;;;;11.25;10.00;;;;;;;;5037154;28;45454;-91
2021/06/24 11:43:39;;;;;;;;;14.00;12.00;;;;;;;;5038619;28;46958;-89
2021/06/24 11:46:05;;;;;;;;;15.00;12.75;;;;;;;;5039553;28;45709;-89
2021/06/24 11:48:30;;;;;;;;;15.75;13.00;;;;;;;;5038803;28;45389;-90
2021/06/24 12:03:04;;;;;;;;;17.00;14.00;;;;;;;;5043918;28;45546;-89
2021/06/24 12:04:45;;;;;;;;;17.50;13.25;;;;;;;;5043572;28;45766;-90
2021/06/24 12:07:11;;;;;;;;;15.25;13.25;;;;;;;;5034121;28;46880;-88
2021/06/24 12:09:43;;;;;;;;;12.25;11.75;;;;;;;;5041297;28;47760;-89
2021/06/24 12:12:12;;;;;;;;;15.00;12.50;;;;;;;;5040614;28;45631;-88
2021/06/24 12:14:41;;;;;;;;;11.25;11.25;;;;;;;;5021196;28;46458;-90
2021/06/24 12:17:11;;;;;;;;;13.25;11.75;;;;;;;;5036005;28;45438;-90
2021/06/24 12:19:56;;;;;;;;;15.50;12.75;;;;;;;;5041132;28;45477;-88
2021/06/24 12:22:37;;;;;;;;;12.25;11.00;;;;;;;;5041590;28;44844;-88
2021/06/24 12:25:22;;;;;;;;;14.25;13.75;;;;;;;;5039519;28;46435;-89
2021/06/24 12:27:48;;;;;;;;;13.25;11.25;;;;;;;;5034464;28;45900;-88
2021/06/24 12:30:16;;;;;;;;;10.00;9.25;;;;;;;;5053910;28;45406;-89
2021/06/24 12:32:45;;;;;;;;;12.75;12.75;;;;;;;;5040912;28;45484;-89
2021/06/24 12:35:10;;;;;;;;;16.25;11.00;;;;;;;;5042155;28;45568;-90
2021/06/24 12:37:43;;;;;;;;;10.75;9.75;;;;;;;;5039337;28;45501;-90
2021/06/24 12:40:13;;;;;;;;;15.75;9.50;;;;;;;;5042214;28;45480;-89
2021/06/24 12:42:42;;;;;;;;;12.50;11.50;;;;;;;;5038625;28;45540;-89
2021/06/24 12:45:07;;;;;;;;;14.00;12.25;;;;;;;;5051847;28;46532;-88
2021/06/24 12:47:34;;;;;;;;;14.50;13.50;;;;;;;;5038023;28;46468;-89
2021/06/24 12:50:13;;;;;;;;;12.75;12.75;;;;;;;;5035589;28;45435;-89
2021/06/24 12:52:45;;;;;;;;;12.00;9.00;;;;;;;;5039980;28;45415;-88
2021/06/24 12:55:31;;;;;;;;;10.25;9.50;;;;;;;;5037163;28;50532;-89
2021/06/24 12:57:58;;;;;;;;;11.25;11.00;;;;;;;;5037246;28;45434;-89
2021/06/24 13:00:24;;;;;;;;;13.50;9.00;;;;;;;;5036920;28;45398;-90
2021/06/24 13:02:50;;;;;;;;;10.25;10.25;;;;;;;;5038394;28;45963;-88
2021/06/24 13:08:09;;;;;;;;;12.50;12.50;;;;;;;;4874808;25;45567;-79
2021/06/24 13:10:48;;;;;;;;;13.00;11.50;;;;;;;;5055057;27;47204;-78
2021/06/24 13:13:29;;;;;;;;;11.75;9.75;;;;;;;;5054535;27;45605;-78
2021/06/24 13:15:54;;;;;;;;;10.00;10.00;;;;;;;;5056113;27;46258;-79
2021/06/24 13:18:20;;;;;;;;;10.25;10.25;;;;;;;;5048513;28;45543;-79
2021/06/24 13:20:55;;;;;;;;;11.75;11.00;;;;;;;;5052979;22;45537;-89
2021/06/24 13:23:30;;;;;;;;;12.25;11.75;;;;;;;;5018536;28;45488;-90
2021/06/24 13:28:34;;;;;;;;;10.50;9.25;;;;;;;;4740146;22;45614;-77
2021/06/24 13:33:35;;;;;;;;;9.25;8.75;;;;;;;;5082315;27;51034;-79
2021/06/24 13:36:00;;;;;;;;;11.50;8.50;;;;;;;;5077462;27;45603;-79
2021/06/24 13:38:26;;;;;;;;;10.67;10.33;;;;;;;;5077912;27;45440;-79
2021/06/24 13:40:52;;;;;;;;;9.33;9.00;;;;;;;;5077060;27;45515;-81
2021/06/24 13:43:18;;;;;;;;;8.75;7.25;;;;;;;;5077888;27;45637;-79
2021/06/24 13:45:46;;;;;;;;;9.00;9.00;;;;;;;;5082433;27;47242;-79
2021/06/24 13:48:13;;;;;;;;;8.00;7.50;;;;;;;;5067183;27;45780;-79
2021/06/24 13:50:38;;;;;;;;;8.00;8.00;;;;;;;;5063746;27;45460;-79
2021/06/24 13:53:14;;;;;;;;;9.50;7.00;;;;;;;;5080708;27;45498;-78
2021/06/24 13:55:39;;;;;;;;;9.75;8.00;;;;;;;;5079639;27;45706;-76
2021/06/24 13:58:05;;;;;;;;;12.67;10.33;;;;;;;;5110329;22;45729;-87
2021/06/24 14:00:31;;;;;;;;;7.75;7.75;;;;;;;;5042977;27;45419;-88
2021/06/24 14:02:59;;;;;;;;;7.00;7.00;;;;;;;;5112688;22;45567;-80
2021/06/24 14:05:24;;;;;;;;;9.50;7.00;;;;;;;;5059722;27;47267;-80
2021/06/24 14:07:49;;;;;;;;;6.33;6.33;;;;;;;;5076159;27;45586;-80
2021/06/24 14:10:15;;;;;;;;;7.33;7.33;;;;;;;;5076688;27;45496;-81
2021/06/24 14:12:40;;;;;;;;;6.67;6.67;;;;;;;;5074899;27;45456;-80
2021/06/24 14:15:05;;;;;;;;;7.00;7.00;;;;;;;;5076898;27;47366;-80
2021/06/24 14:17:31;;;;;;;;;9.75;8.00;;;;;;;;5056958;27;46183;-80
2021/06/24 14:19:56;;;;;;;;;8.25;8.00;;;;;;;;5068776;27;45382;-80
2021/06/24 14:22:21;;;;;;;;;7.50;6.00;;;;;;;;5071996;27;45502;-80
2021/06/24 14:24:46;;;;;;;;;9.00;7.25;;;;;;;;5079267;27;45559;-80
2021/06/24 14:27:12;;;;;;;;;7.00;7.00;;;;;;;;5078241;22;45449;-79
2021/06/24 14:29:38;;;;;;;;;7.25;7.25;;;;;;;;5019759;28;45607;-79
2021/06/24 14:32:03;;;;;;;;;8.50;7.00;;;;;;;;5016095;28;46487;-79
2021/06/24 14:34:28;;;;;;;;;9.75;7.50;;;;;;;;5015185;28;45511;-80
2021/06/24 14:36:54;;;;;;;;;9.75;7.00;;;;;;;;5021978;28;45555;-80
2021/06/24 14:39:19;;;;;;;;;6.50;6.25;;;;;;;;5022652;28;45493;-79
2021/06/24 14:41:45;;;;;;;;;7.50;5.25;;;;;;;;5015946;28;45672;-79
2021/06/24 14:44:10;;;;;;;;;6.25;6.00;;;;;;;;5000004;28;48092;-79
2021/06/24 14:46:36;;;;;;;;;7.00;7.00;;;;;;;;5013116;28;46189;-79
2021/06/24 14:49:02;;;;;;;;;9.50;7.00;;;;;;;;5017588;28;45633;-79
2021/06/24 14:51:28;;;;;;;;;8.25;6.25;;;;;;;;5016006;28;47540;-79
2021/06/24 14:53:53;;;;;;;;;6.75;6.75;;;;;;;;5014630;28;45639;-79
2021/06/24 14:56:19;;;;;;;;;6.50;6.25;;;;;;;;5016711;28;46297;-77
2021/06/24 14:58:48;;;;;;;;;6.25;6.25;;;;;;;;5012873;28;45877;-76
2021/06/24 15:01:17;;;;;;;;;7.00;7.00;;;;;;;;5012862;28;45681;-77
2021/06/24 15:03:42;;;;;;;;;5.50;5.50;;;;;;;;5012378;28;46580;-76
2021/06/24 15:06:08;;;;;;;;;5.75;5.75;;;;;;;;5010551;28;45650;-77
2021/06/24 15:08:33;;;;;;;;;8.00;6.50;;;;;;;;5013838;28;45743;-76
2021/06/24 15:10:58;;;;;;;;;10.25;9.25;;;;;;;;5012666;28;45550;-76
2021/06/24 15:13:24;;;;;;;;;7.25;5.50;;;;;;;;5012247;28;45349;-77
2021/06/24 15:15:49;;;;;;;;;7.50;5.75;;;;;;;;5016766;28;45389;-76